Time,TemperatureF,DewpointF,PressureIn,WindDirection,WindDirectionDegrees,WindSpeedMPH,WindSpeedGustMPH,Humidity,HourlyPrecipIn,Conditions,Clouds,dailyrainin,SoftwareType,DateUTC
2013-05-05 00:11:00,64.0,32.0,29.96,North,0,0.0,-999.0,29,-99.99,,,-99.99,,2013-05-05 07:11:00,
2013-05-05 00:21:00,64.0,32.0,29.96,North,0,0.0,-999.0,29,-99.99,,,-99.99,,2013-05-05 07:21:00,
2013-05-05 00:32:00,64.0,32.0,29.96,North,0,0.0,-999.0,29,-99.99,,,-99.99,,2013-05-05 07:32:00,
2013-05-05 00:42:00,61.0,36.0,29.96,North,0,0.0,-999.0,38,-99.99,,,-99.99,,2013-05-05 07:42:00,
2013-05-05 00:52:00,61.0,36.0,29.96,North,0,0.0,-999.0,38,-99.99,,,-99.99,,2013-05-05 07:52:00,
2013-05-05 01:11:00,54.0,37.0,29.96,North,0,0.0,-999.0,54,-99.99,,,-99.99,,2013-05-05 08:11:00,
2013-05-05 01:21:00,54.0,37.0,29.96,North,0,0.0,-999.0,54,-99.99,,,-99.99,,2013-05-05 08:21:00,
2013-05-05 01:31:00,54.0,37.0,29.96,North,0,0.0,-999.0,54,-99.99,,,-99.99,,2013-05-05 08:31:00,
2013-05-05 01:42:00,52.0,37.0,29.96,North,0,0.0,-999.0,57,-99.99,,,-99.99,,2013-05-05 08:42:00,
2013-05-05 01:52:00,52.0,37.0,29.96,North,0,0.0,-999.0,57,-99.99,,,-99.99,,2013-05-05 08:52:00,
2013-05-05 02:11:00,52.0,37.0,29.95,South,180,3.0,-999.0,57,-99.99,,,-99.99,,2013-05-05 09:11:00,
2013-05-05 02:21:00,52.0,37.0,29.95,South,180,3.0,-999.0,57,-99.99,,,-99.99,,2013-05-05 09:21:00,
2013-05-05 02:32:00,52.0,37.0,29.95,South,180,3.0,-999.0,57,-99.99,,,-99.99,,2013-05-05 09:32:00,
2013-05-05 02:42:00,52.0,37.0,29.94,SSW,210,3.0,-999.0,57,-99.99,,,-99.99,,2013-05-05 09:42:00,
2013-05-05 02:52:00,52.0,37.0,29.94,SSW,210,3.0,-999.0,57,-99.99,,,-99.99,,2013-05-05 09:52:00,
2013-05-05 03:12:00,48.0,37.0,29.94,SSW,210,3.0,-999.0,66,-99.99,,,-99.99,,2013-05-05 10:12:00,
2013-05-05 03:22:00,48.0,37.0,29.94,SSW,210,3.0,-999.0,66,-99.99,,,-99.99,,2013-05-05 10:22:00,
2013-05-05 03:32:00,48.0,37.0,29.94,SSW,210,3.0,-999.0,66,-99.99,,,-99.99,,2013-05-05 10:32:00,
2013-05-05 03:42:00,48.0,37.0,29.95,North,0,0.0,-999.0,66,-99.99,,,-99.99,,2013-05-05 10:42:00,
2013-05-05 03:52:00,48.0,37.0,29.95,North,0,0.0,-999.0,66,-99.99,,,-99.99,,2013-05-05 10:52:00,
2013-05-05 04:12:00,46.0,37.0,29.94,SSW,200,5.0,-999.0,70,-99.99,,,-99.99,,2013-05-05 11:12:00,
2013-05-05 04:21:00,46.0,37.0,29.94,SSW,200,5.0,-999.0,70,-99.99,,,-99.99,,2013-05-05 11:21:00,
2013-05-05 04:32:00,46.0,37.0,29.94,SSW,200,5.0,-999.0,70,-99.99,,,-99.99,,2013-05-05 11:32:00,
2013-05-05 04:42:00,46.0,37.0,29.94,SSW,200,5.0,-999.0,70,-99.99,,,-99.99,,2013-05-05 11:42:00,
2013-05-05 04:51:00,46.0,37.0,29.94,SSW,200,5.0,-999.0,70,-99.99,,,-99.99,,2013-05-05 11:51:00,
2013-05-05 05:11:00,48.0,37.0,29.93,South,180,5.0,-999.0,66,-99.99,,,-99.99,,2013-05-05 12:11:00,
2013-05-05 05:21:00,48.0,37.0,29.93,South,180,5.0,-999.0,66,-99.99,,,-99.99,,2013-05-05 12:21:00,
2013-05-05 05:32:00,48.0,37.0,29.93,South,180,5.0,-999.0,66,-99.99,,,-99.99,,2013-05-05 12:32:00,
2013-05-05 05:42:00,46.0,37.0,29.93,South,190,9.0,-999.0,70,-99.99,,,-99.99,,2013-05-05 12:42:00,
2013-05-05 05:52:00,46.0,37.0,29.93,South,190,9.0,-999.0,70,-99.99,,,-99.99,,2013-05-05 12:52:00,
2013-05-05 06:11:00,48.0,37.0,29.93,South,180,6.0,-999.0,66,-99.99,,,-99.99,,2013-05-05 13:11:00,
2013-05-05 06:21:00,48.0,37.0,29.93,South,180,6.0,-999.0,66,-99.99,,,-99.99,,2013-05-05 13:21:00,
2013-05-05 06:32:00,48.0,37.0,29.93,South,180,6.0,-999.0,66,-99.99,,,-99.99,,2013-05-05 13:32:00,
2013-05-05 06:42:00,48.0,37.0,29.94,South,180,6.0,-999.0,66,-99.99,,,-99.99,,2013-05-05 13:42:00,
2013-05-05 06:52:00,48.0,37.0,29.94,South,180,6.0,-999.0,66,-99.99,,,-99.99,,2013-05-05 13:52:00,
2013-05-05 07:11:00,48.0,37.0,29.95,SSW,210,5.0,-999.0,66,-99.99,,,-99.99,,2013-05-05 14:11:00,
2013-05-05 07:21:00,48.0,37.0,29.95,SSW,210,5.0,-999.0,66,-99.99,,,-99.99,,2013-05-05 14:21:00,
2013-05-05 07:31:00,48.0,37.0,29.95,SSW,210,5.0,-999.0,66,-99.99,,,-99.99,,2013-05-05 14:31:00,
2013-05-05 07:42:00,52.0,37.0,29.95,North,0,0.0,-999.0,57,-99.99,,,-99.99,,2013-05-05 14:42:00,
2013-05-05 07:51:00,52.0,37.0,29.95,North,0,0.0,-999.0,57,-99.99,,,-99.99,,2013-05-05 14:51:00,
2013-05-05 08:11:00,54.0,41.0,29.95,North,0,0.0,-999.0,62,-99.99,,,-99.99,,2013-05-05 15:11:00,
2013-05-05 08:21:00,54.0,41.0,29.95,North,0,0.0,-999.0,62,-99.99,,,-99.99,,2013-05-05 15:21:00,
2013-05-05 08:32:00,54.0,41.0,29.95,North,0,0.0,-999.0,62,-99.99,,,-99.99,,2013-05-05 15:32:00,
2013-05-05 08:43:00,57.0,43.0,29.95,North,0,0.0,-999.0,58,-99.99,,,-99.99,,2013-05-05 15:43:00,
2013-05-05 08:53:00,57.0,43.0,29.95,North,0,0.0,-999.0,58,-99.99,,,-99.99,,2013-05-05 15:53:00,
2013-05-05 09:12:00,61.0,45.0,29.95,North,0,0.0,-999.0,55,-99.99,,,-99.99,,2013-05-05 16:12:00,
2013-05-05 09:22:00,61.0,45.0,29.95,North,0,0.0,-999.0,55,-99.99,,,-99.99,,2013-05-05 16:22:00,
2013-05-05 09:32:00,61.0,45.0,29.95,North,0,0.0,-999.0,55,-99.99,,,-99.99,,2013-05-05 16:32:00,
2013-05-05 09:42:00,63.0,45.0,29.94,North,0,0.0,-999.0,51,-99.99,,,-99.99,,2013-05-05 16:42:00,
2013-05-05 09:52:00,63.0,45.0,29.94,North,0,0.0,-999.0,51,-99.99,,,-99.99,,2013-05-05 16:52:00,
2013-05-05 10:12:00,68.0,41.0,29.93,ESE,110,3.0,-999.0,37,-99.99,,,-99.99,,2013-05-05 17:12:00,
2013-05-05 10:23:00,68.0,41.0,29.93,ESE,110,3.0,-999.0,37,-99.99,,,-99.99,,2013-05-05 17:23:00,
2013-05-05 10:32:00,68.0,41.0,29.93,ESE,110,3.0,-999.0,37,-99.99,,,-99.99,,2013-05-05 17:32:00,
2013-05-05 10:42:00,70.0,39.0,29.92,East,90,6.0,-999.0,32,-99.99,,,-99.99,,2013-05-05 17:42:00,
2013-05-05 10:52:00,70.0,39.0,29.92,East,90,6.0,-999.0,32,-99.99,,,-99.99,,2013-05-05 17:52:00,
2013-05-05 11:12:00,72.0,39.0,29.91,East,90,7.0,-999.0,30,-99.99,,,-99.99,,2013-05-05 18:12:00,
2013-05-05 11:21:00,72.0,39.0,29.91,East,90,7.0,-999.0,30,-99.99,,,-99.99,,2013-05-05 18:21:00,
2013-05-05 11:32:00,72.0,39.0,29.91,East,90,7.0,-999.0,30,-99.99,,,-99.99,,2013-05-05 18:32:00,
2013-05-05 11:42:00,73.0,37.0,29.91,ESE,110,7.0,-999.0,27,-99.99,,,-99.99,,2013-05-05 18:42:00,
2013-05-05 11:51:00,73.0,37.0,29.91,ESE,110,7.0,-999.0,27,-99.99,,,-99.99,,2013-05-05 18:51:00,
2013-05-05 12:11:00,75.0,37.0,29.89,SSE,150,9.0,-999.0,25,-99.99,,,-99.99,,2013-05-05 19:11:00,
2013-05-05 12:21:00,75.0,37.0,29.89,SSE,150,9.0,-999.0,25,-99.99,,,-99.99,,2013-05-05 19:21:00,
2013-05-05 12:32:00,75.0,37.0,29.89,SSE,150,9.0,-999.0,25,-99.99,,,-99.99,,2013-05-05 19:32:00,
2013-05-05 12:41:00,75.0,39.0,29.89,East,100,5.0,-999.0,27,-99.99,,,-99.99,,2013-05-05 19:41:00,
2013-05-05 12:52:00,75.0,39.0,29.89,East,100,5.0,-999.0,27,-99.99,,,-99.99,,2013-05-05 19:52:00,
2013-05-05 13:11:00,77.0,39.0,29.87,East,90,7.0,-999.0,25,-99.99,,,-99.99,,2013-05-05 20:11:00,
2013-05-05 13:21:00,77.0,39.0,29.87,East,90,7.0,-999.0,25,-99.99,,,-99.99,,2013-05-05 20:21:00,
2013-05-05 13:31:00,77.0,39.0,29.87,East,90,7.0,-999.0,25,-99.99,,,-99.99,,2013-05-05 20:31:00,
2013-05-05 13:41:00,77.0,37.0,29.86,ESE,120,10.0,16.0,23,-99.99,,,-99.99,,2013-05-05 20:41:00,
2013-05-05 13:52:00,77.0,37.0,29.86,ESE,120,10.0,16.0,23,-99.99,,,-99.99,,2013-05-05 20:52:00,
2013-05-05 14:11:00,79.0,36.0,29.84,SE,130,12.0,17.0,21,-99.99,,,-99.99,,2013-05-05 21:11:00,
2013-05-05 14:21:00,79.0,36.0,29.84,SE,130,12.0,17.0,21,-99.99,,,-99.99,,2013-05-05 21:21:00,
2013-05-05 14:32:00,79.0,36.0,29.84,SE,130,12.0,17.0,21,-99.99,,,-99.99,,2013-05-05 21:32:00,
2013-05-05 14:42:00,81.0,39.0,29.84,ESE,110,10.0,17.0,22,-99.99,,,-99.99,,2013-05-05 21:42:00,
2013-05-05 14:52:00,81.0,39.0,29.84,ESE,110,10.0,17.0,22,-99.99,,,-99.99,,2013-05-05 21:52:00,
2013-05-05 15:12:00,81.0,37.0,29.84,ESE,110,13.0,23.0,21,-99.99,,,-99.99,,2013-05-05 22:12:00,
2013-05-05 15:22:00,81.0,37.0,29.84,ESE,110,13.0,23.0,21,-99.99,,,-99.99,,2013-05-05 22:22:00,
2013-05-05 15:33:00,81.0,37.0,29.84,ESE,110,13.0,23.0,21,-99.99,,,-99.99,,2013-05-05 22:33:00,
2013-05-05 15:42:00,81.0,37.0,29.83,ESE,120,10.0,17.0,21,-99.99,,,-99.99,,2013-05-05 22:42:00,
2013-05-05 15:52:00,81.0,37.0,29.83,ESE,120,10.0,17.0,21,-99.99,,,-99.99,,2013-05-05 22:52:00,
2013-05-05 16:11:00,81.0,37.0,29.82,East,90,13.0,16.0,21,-99.99,,,-99.99,,2013-05-05 23:11:00,
2013-05-05 16:21:00,81.0,37.0,29.82,East,90,13.0,16.0,21,-99.99,,,-99.99,,2013-05-05 23:21:00,
2013-05-05 16:32:00,81.0,37.0,29.82,East,90,13.0,16.0,21,-99.99,,,-99.99,,2013-05-05 23:32:00,
2013-05-05 16:42:00,81.0,37.0,29.81,ESE,110,9.0,16.0,21,-99.99,,,-99.99,,2013-05-05 23:42:00,
2013-05-05 16:52:00,81.0,37.0,29.81,ESE,110,9.0,16.0,21,-99.99,,,-99.99,,2013-05-05 23:52:00,
2013-05-05 17:11:00,82.0,37.0,29.79,ESE,110,6.0,-999.0,20,-99.99,,,-99.99,,2013-05-06 00:11:00,
2013-05-05 17:21:00,82.0,37.0,29.79,ESE,110,6.0,-999.0,20,-99.99,,,-99.99,,2013-05-06 00:21:00,
2013-05-05 17:31:00,82.0,37.0,29.79,ESE,110,6.0,-999.0,20,-99.99,,,-99.99,,2013-05-06 00:31:00,
2013-05-05 17:41:00,82.0,37.0,29.78,ENE,60,6.0,-999.0,20,-99.99,,,-99.99,,2013-05-06 00:41:00,
2013-05-05 17:51:00,82.0,37.0,29.78,ENE,60,6.0,-999.0,20,-99.99,,,-99.99,,2013-05-06 00:51:00,
2013-05-05 18:11:00,82.0,37.0,29.77,East,80,6.0,-999.0,20,-99.99,,,-99.99,,2013-05-06 01:11:00,
2013-05-05 18:21:00,82.0,37.0,29.77,East,80,6.0,-999.0,20,-99.99,,,-99.99,,2013-05-06 01:21:00,
2013-05-05 18:31:00,82.0,37.0,29.77,East,80,6.0,-999.0,20,-99.99,,,-99.99,,2013-05-06 01:31:00,
2013-05-05 18:41:00,81.0,37.0,29.77,ENE,70,8.0,-999.0,21,-99.99,,,-99.99,,2013-05-06 01:41:00,
2013-05-05 18:52:00,81.0,37.0,29.77,ENE,70,8.0,-999.0,21,-99.99,,,-99.99,,2013-05-06 01:52:00,
2013-05-05 19:12:00,81.0,37.0,29.76,East,80,6.0,-999.0,21,-99.99,,,-99.99,,2013-05-06 02:12:00,
2013-05-05 19:21:00,81.0,37.0,29.76,East,80,6.0,-999.0,21,-99.99,,,-99.99,,2013-05-06 02:21:00,
2013-05-05 19:32:00,81.0,37.0,29.76,East,80,6.0,-999.0,21,-99.99,,,-99.99,,2013-05-06 02:32:00,
2013-05-05 19:42:00,81.0,37.0,29.76,East,100,6.0,-999.0,21,-99.99,,,-99.99,,2013-05-06 02:42:00,
2013-05-05 19:51:00,81.0,37.0,29.76,East,100,6.0,-999.0,21,-99.99,,,-99.99,,2013-05-06 02:51:00,
2013-05-05 20:11:00,77.0,37.0,29.76,East,90,3.0,-999.0,23,-99.99,,,-99.99,,2013-05-06 03:11:00,
2013-05-05 20:22:00,77.0,37.0,29.76,East,90,3.0,-999.0,23,-99.99,,,-99.99,,2013-05-06 03:22:00,
2013-05-05 20:33:00,77.0,37.0,29.76,East,90,3.0,-999.0,23,-99.99,,,-99.99,,2013-05-06 03:33:00,
2013-05-05 20:42:00,75.0,37.0,29.76,East,90,3.0,-999.0,25,-99.99,,,-99.99,,2013-05-06 03:42:00,
2013-05-05 20:52:00,75.0,37.0,29.76,East,90,3.0,-999.0,25,-99.99,,,-99.99,,2013-05-06 03:52:00,
2013-05-05 21:12:00,72.0,37.0,29.78,East,90,3.0,-999.0,28,-99.99,,,-99.99,,2013-05-06 04:12:00,
2013-05-05 21:23:00,72.0,37.0,29.78,East,90,3.0,-999.0,28,-99.99,,,-99.99,,2013-05-06 04:23:00,
2013-05-05 21:32:00,72.0,37.0,29.78,East,90,3.0,-999.0,28,-99.99,,,-99.99,,2013-05-06 04:32:00,
2013-05-05 21:42:00,68.0,39.0,29.78,SSW,200,5.0,-999.0,34,-99.99,,,-99.99,,2013-05-06 04:42:00,
2013-05-05 21:52:00,68.0,39.0,29.78,SSW,200,5.0,-999.0,34,-99.99,,,-99.99,,2013-05-06 04:52:00,
2013-05-05 22:12:00,63.0,43.0,29.79,SSW,200,3.0,-999.0,48,-99.99,,,-99.99,,2013-05-06 05:12:00,
2013-05-05 22:22:00,63.0,43.0,29.79,SSW,200,3.0,-999.0,48,-99.99,,,-99.99,,2013-05-06 05:22:00,
2013-05-05 22:32:00,63.0,43.0,29.79,SSW,200,3.0,-999.0,48,-99.99,,,-99.99,,2013-05-06 05:32:00,
2013-05-05 23:12:00,59.0,43.0,29.81,SSW,200,3.0,-999.0,54,-99.99,,,-99.99,,2013-05-06 06:12:00,
2013-05-05 23:21:00,59.0,43.0,29.81,SSW,200,3.0,-999.0,54,-99.99,,,-99.99,,2013-05-06 06:21:00,
2013-05-05 23:31:00,59.0,43.0,29.81,SSW,200,3.0,-999.0,54,-99.99,,,-99.99,,2013-05-06 06:31:00,
2013-05-05 23:41:00,59.0,43.0,29.81,SW,220,5.0,-999.0,54,-99.99,,,-99.99,,2013-05-06 06:41:00,
2013-05-05 23:52:00,59.0,43.0,29.81,SW,220,5.0,-999.0,54,-99.99,,,-99.99,,2013-05-06 06:52:00,